Time;durP1;ratioP1;P1;durP2;ratioP2;P2;SDS_P1;SDS_P2;PMS_P1;PMS_P2;Temp;Humidity;BMP_temperature;BMP_pressure;BME280_temperature;BME280_humidity;BME280_pressure;Samples;Min_cycle;Max_cycle;Signal;HPM_P1;HPM_P2
2022/05/30 00:00:16;;;;;;;7.13;2.53;;;;;;;5.11;100.00;95655.09;5031328;28;20038;-76
2022/05/30 00:02:42;;;;;;;4.67;2.27;;;;;;;5.06;100.00;95662.50;5022534;28;20030;-76
2022/05/30 00:05:10;;;;;;;5.70;2.70;;;;;;;5.15;100.00;95659.06;5038335;28;20458;-77
2022/05/30 00:07:36;;;;;;;9.27;3.10;;;;;;;5.09;100.00;95654.41;5045554;28;20025;-76
2022/05/30 00:10:03;;;;;;;8.50;2.70;;;;;;;4.91;100.00;95660.31;5030881;28;20528;-76
2022/05/30 00:12:29;;;;;;;4.97;3.03;;;;;;;4.89;100.00;95657.00;5023788;28;20039;-77
2022/05/30 00:14:54;;;;;;;6.67;2.43;;;;;;;4.89;100.00;95654.41;5036718;28;20025;-77
2022/05/30 00:17:20;;;;;;;7.53;2.73;;;;;;;4.85;100.00;95653.06;5040801;28;20400;-76
2022/05/30 00:19:47;;;;;;;6.17;2.83;;;;;;;4.84;100.00;95655.81;5032326;28;20513;-77
2022/05/30 00:22:14;;;;;;;5.87;2.77;;;;;;;4.80;100.00;95660.47;5017056;28;20057;-76
2022/05/30 00:24:41;;;;;;;9.47;2.70;;;;;;;4.79;100.00;95653.59;5026048;28;20025;-76
2022/05/30 00:27:08;;;;;;;7.03;2.70;;;;;;;4.85;100.00;95654.84;5035985;28;20033;-77
2022/05/30 00:29:34;;;;;;;7.00;2.53;;;;;;;4.91;100.00;95646.47;5023195;28;20043;-76
2022/05/30 00:32:00;;;;;;;6.20;2.60;;;;;;;4.87;100.00;95645.94;5013692;28;20091;-75
2022/05/30 00:34:27;;;;;;;9.53;2.83;;;;;;;4.86;100.00;95651.25;5035233;28;20036;-76
2022/05/30 00:36:53;;;;;;;8.97;2.77;;;;;;;4.75;100.00;95647.03;5034595;28;20311;-75
2022/05/30 00:39:19;;;;;;;5.70;2.60;;;;;;;4.75;100.00;95649.63;5032910;28;20040;-75
2022/05/30 00:41:45;;;;;;;6.70;2.97;;;;;;;4.66;100.00;95642.63;5046932;28;20243;-75
2022/05/30 00:44:11;;;;;;;6.37;2.53;;;;;;;4.57;100.00;95646.09;5045240;28;20717;-75
2022/05/30 00:46:37;;;;;;;6.13;2.63;;;;;;;4.47;100.00;95641.69;5023961;28;20045;-75
2022/05/30 00:49:10;;;;;;;5.10;2.37;;;;;;;4.45;100.00;95645.38;5021961;28;20033;-76
2022/05/30 00:51:51;;;;;;;5.45;3.00;;;;;;;4.52;100.00;95643.06;5022076;28;20041;-76
2022/05/30 00:54:29;;;;;;;6.73;2.70;;;;;;;4.57;100.00;95639.09;5032220;28;20117;-75
2022/05/30 00:56:59;;;;;;;4.83;2.37;;;;;;;4.61;100.00;95640.44;5010619;28;20095;-76
2022/05/30 00:59:25;;;;;;;5.93;2.63;;;;;;;4.56;100.00;95634.00;5013445;28;20049;-76
2022/05/30 01:01:50;;;;;;;10.73;3.17;;;;;;;4.49;100.00;95628.50;5014988;28;20033;-76
2022/05/30 01:07:10;;;;;;;7.00;2.77;;;;;;;4.66;100.00;95624.41;5048621;28;20033;-76
2022/05/30 01:09:44;;;;;;;4.55;2.35;;;;;;;4.66;100.00;95614.84;5032004;28;20412;-77
2022/05/30 01:12:12;;;;;;;4.57;2.60;;;;;;;4.60;100.00;95624.97;5022640;28;20033;-76
2022/05/30 01:14:42;;;;;;;6.67;2.67;;;;;;;4.58;100.00;95616.47;5039931;28;20037;-76
2022/05/30 01:17:15;;;;;;;5.17;2.60;;;;;;;4.55;100.00;95616.75;5033728;28;20036;-77
2022/05/30 01:19:56;;;;;;;5.20;2.80;;;;;;;4.48;100.00;95622.50;5037844;28;20120;-76
2022/05/30 01:22:59;;;;;;;6.40;2.73;;;;;;;4.40;100.00;95619.75;5027762;28;20471;-76
2022/05/30 01:25:48;;;;;;;8.67;3.53;;;;;;;4.30;100.00;95611.13;5034569;28;20033;-75
2022/05/30 01:28:48;;;;;;;4.83;2.23;;;;;;;4.42;100.00;95612.63;5039492;28;20461;-76
2022/05/30 01:31:16;;;;;;;6.03;2.30;;;;;;;4.33;100.00;95607.44;5029516;28;20051;-76
2022/05/30 01:33:42;;;;;;;9.87;3.00;;;;;;;4.24;100.00;95609.88;5049695;28;20047;-76
2022/05/30 01:36:09;;;;;;;5.87;2.40;;;;;;;4.14;100.00;95613.44;5024535;28;20032;-77
2022/05/30 01:38:36;;;;;;;4.97;2.20;;;;;;;4.12;100.00;95608.34;5024436;28;20042;-76
2022/05/30 01:41:03;;;;;;;6.03;2.43;;;;;;;4.10;100.00;95610.28;5021827;28;20025;-76
2022/05/30 01:43:31;;;;;;;7.47;2.87;;;;;;;4.12;100.00;95612.72;5011544;28;20029;-76
2022/05/30 01:46:07;;;;;;;6.17;2.70;;;;;;;4.12;100.00;95600.53;5043325;28;20060;-76
2022/05/30 01:48:38;;;;;;;7.23;3.40;;;;;;;4.12;100.00;95591.91;5013762;28;20041;-76
2022/05/30 01:51:04;;;;;;;6.67;2.63;;;;;;;4.13;100.00;95593.56;5025169;28;20017;-76
2022/05/30 01:53:31;;;;;;;6.50;2.50;;;;;;;4.16;100.00;95591.53;5027213;28;20030;-76
2022/05/30 01:56:26;;;;;;;5.70;2.53;;;;;;;4.17;100.00;95587.97;5015937;28;20037;-76
2022/05/30 01:58:56;;;;;;;6.63;2.57;;;;;;;4.04;100.00;95584.78;5030763;28;20037;-76
2022/05/30 02:01:34;;;;;;;5.37;2.50;;;;;;;4.09;100.00;95580.03;5035401;28;20053;-76
2022/05/30 02:04:01;;;;;;;6.07;3.20;;;;;;;4.02;100.00;95581.50;5021456;28;20049;-77
2022/05/30 02:06:27;;;;;;;5.10;2.50;;;;;;;4.13;100.00;95578.78;5024716;28;20486;-77
2022/05/30 02:08:53;;;;;;;6.17;3.03;;;;;;;4.15;100.00;95578.63;5029707;28;20029;-76
2022/05/30 02:11:24;;;;;;;7.50;2.80;;;;;;;4.01;100.00;95580.66;5040919;28;20029;-77
2022/05/30 02:13:57;;;;;;;5.93;2.97;;;;;;;3.90;100.00;95575.59;5041798;28;20026;-77
2022/05/30 02:19:20;;;;;;;5.37;3.87;;;;;;;3.90;100.00;95580.81;5033809;28;20091;-76
2022/05/30 02:21:47;;;;;;;6.43;3.43;;;;;;;3.86;100.00;95574.22;5033130;28;20411;-77
2022/05/30 02:24:13;;;;;;;8.67;4.13;;;;;;;3.85;100.00;95576.94;5033305;28;20026;-77
2022/05/30 02:26:39;;;;;;;8.80;5.17;;;;;;;3.82;100.00;95572.81;5029881;28;20040;-76
2022/05/30 02:29:07;;;;;;;6.60;3.63;;;;;;;3.78;100.00;95574.06;5008494;28;20403;-76
2022/05/30 02:31:34;;;;;;;6.77;4.03;;;;;;;3.78;100.00;95574.06;5026016;28;20065;-76
2022/05/30 02:36:44;;;;;;;7.30;4.27;;;;;;;3.86;100.00;95569.03;5022483;28;20029;-76
2022/05/30 02:39:15;;;;;;;8.17;4.60;;;;;;;3.82;100.00;95564.22;5026714;28;20124;-76
2022/05/30 02:41:54;;;;;;;12.90;5.73;;;;;;;3.73;100.00;95573.66;5027732;28;20041;-77
2022/05/30 02:44:23;;;;;;;12.93;4.90;;;;;;;3.61;100.00;95570.31;5018058;28;20048;-76
2022/05/30 02:46:54;;;;;;;9.20;5.17;;;;;;;3.54;100.00;95570.03;5023552;28;20053;-77
2022/05/30 02:49:20;;;;;;;7.73;4.27;;;;;;;3.50;100.00;95565.25;5027139;28;20128;-76
2022/05/30 02:51:47;;;;;;;7.13;4.00;;;;;;;3.59;100.00;95561.00;5020829;28;20546;-77
2022/05/30 02:54:13;;;;;;;7.63;4.43;;;;;;;3.36;100.00;95561.22;5027522;28;20086;-76
2022/05/30 02:56:58;;;;;;;9.90;4.20;;;;;;;3.28;100.00;95566.25;5029028;28;20037;-76
2022/05/30 02:59:27;;;;;;;7.87;3.50;;;;;;;3.33;100.00;95561.50;5038872;28;20498;-77
2022/05/30 03:02:01;;;;;;;7.03;3.63;;;;;;;3.37;100.00;95567.25;5039681;28;20030;-76
2022/05/30 03:04:27;;;;;;;8.00;3.17;;;;;;;3.33;100.00;95563.28;5029782;28;20046;-76
2022/05/30 03:06:52;;;;;;;7.83;3.03;;;;;;;3.42;100.00;95570.25;5024513;28;20547;-77
2022/05/30 03:09:19;;;;;;;8.20;3.67;;;;;;;3.46;100.00;95574.25;5040574;28;20063;-77
2022/05/30 03:12:03;;;;;;;13.97;8.87;;;;;;;3.46;100.00;95571.66;5030190;28;20443;-76
2022/05/30 03:14:29;;;;;;;15.63;10.07;;;;;;;3.47;100.00;95579.31;5011271;28;20596;-77
2022/05/30 03:16:55;;;;;;;14.00;9.33;;;;;;;3.45;100.00;95576.00;5021271;28;20480;-77
2022/05/30 03:19:21;;;;;;;7.53;4.97;;;;;;;3.35;100.00;95575.16;5015743;28;20025;-77
2022/05/30 03:21:48;;;;;;;6.40;4.30;;;;;;;3.47;100.00;95568.91;5010813;28;20033;-77
2022/05/30 03:24:14;;;;;;;9.57;4.60;;;;;;;3.48;100.00;95573.16;5016853;28;20028;-77
2022/05/30 03:26:39;;;;;;;6.80;3.90;;;;;;;3.49;100.00;95577.41;5031995;28;20046;-77
2022/05/30 03:29:06;;;;;;;7.57;4.50;;;;;;;3.42;100.00;95576.31;5029368;28;20043;-76
2022/05/30 03:31:33;;;;;;;5.60;3.47;;;;;;;3.45;100.00;95583.81;5027303;28;20065;-77
2022/05/30 03:33:59;;;;;;;6.27;3.77;;;;;;;3.37;100.00;95586.25;5025463;28;20056;-78
2022/05/30 03:36:27;;;;;;;9.83;3.87;;;;;;;3.44;100.00;95589.16;5020798;28;20037;-77
2022/05/30 03:38:59;;;;;;;6.77;4.13;;;;;;;3.52;100.00;95591.91;5030100;28;20042;-77
2022/05/30 03:41:48;;;;;;;12.17;5.47;;;;;;;3.60;100.00;95593.88;5022631;28;20046;-77
2022/05/30 03:44:34;;;;;;;17.17;9.77;;;;;;;3.61;100.00;95595.50;5020807;28;20127;-77
2022/05/30 03:46:59;;;;;;;18.20;11.17;;;;;;;3.46;100.00;95603.66;5018577;28;20061;-77
2022/05/30 03:49:25;;;;;;;9.40;4.93;;;;;;;3.39;100.00;95601.75;5030752;28;20032;-77
2022/05/30 03:51:51;;;;;;;7.10;4.33;;;;;;;3.56;100.00;95605.50;5011783;28;20025;-77
2022/05/30 03:54:17;;;;;;;7.20;4.13;;;;;;;3.61;100.00;95604.13;5009143;28;20041;-77
2022/05/30 03:56:43;;;;;;;8.40;4.67;;;;;;;3.69;100.00;95612.09;5016397;28;20421;-77
2022/05/30 03:59:09;;;;;;;5.33;3.40;;;;;;;3.74;100.00;95617.72;5022637;28;20044;-77
2022/05/30 04:01:34;;;;;;;6.33;3.83;;;;;;;3.72;100.00;95606.63;5023706;28;20049;-77
2022/05/30 04:04:00;;;;;;;9.13;3.93;;;;;;;3.78;100.00;95610.47;5031358;28;20410;-77
2022/05/30 04:06:26;;;;;;;6.50;3.57;;;;;;;3.79;100.00;95609.53;5024722;28;20102;-77
2022/05/30 04:08:54;;;;;;;5.20;3.23;;;;;;;3.83;100.00;95610.91;5018192;28;20498;-77
2022/05/30 04:11:25;;;;;;;5.50;2.90;;;;;;;3.97;100.00;95613.13;5020127;28;20046;-77
2022/05/30 04:14:09;;;;;;;6.77;3.13;;;;;;;4.05;100.00;95614.22;5022340;28;20049;-77
2022/05/30 04:16:47;;;;;;;8.37;4.73;;;;;;;4.10;100.00;95612.88;5009959;28;20037;-77
2022/05/30 04:19:13;;;;;;;7.53;3.40;;;;;;;4.09;100.00;95623.41;5006018;28;20095;-77
2022/05/30 04:21:40;;;;;;;7.70;3.30;;;;;;;4.15;100.00;95615.06;5007200;28;20033;-78
2022/05/30 04:24:07;;;;;;;5.90;3.53;;;;;;;4.24;100.00;95612.47;5030599;28;20037;-77
2022/05/30 04:26:43;;;;;;;7.53;3.77;;;;;;;4.25;100.00;95610.69;5016586;28;20059;-77
2022/05/30 04:29:11;;;;;;;7.00;3.30;;;;;;;4.37;100.00;95614.81;5035355;28;20072;-77
2022/05/30 04:31:59;;;;;;;6.47;3.27;;;;;;;4.53;100.00;95618.66;5040361;28;20036;-77
2022/05/30 04:34:25;;;;;;;6.43;3.27;;;;;;;4.57;100.00;95618.25;5019596;28;20032;-77
2022/05/30 04:36:52;;;;;;;5.73;2.90;;;;;;;4.49;100.00;95620.69;5008708;28;20561;-77
2022/05/30 04:39:17;;;;;;;5.90;3.30;;;;;;;4.61;100.00;95621.41;5022183;28;20033;-77
2022/05/30 04:45:06;;;;;;;7.43;3.63;;;;;;;4.34;100.00;95629.88;5032383;28;20117;-75
2022/05/30 04:47:51;;;;;;;6.27;3.80;;;;;;;4.51;100.00;95633.59;5016011;28;20049;-77
2022/05/30 04:50:18;;;;;;;5.50;3.10;;;;;;;4.69;100.00;95630.19;5017913;28;20032;-77
2022/05/30 04:52:45;;;;;;;7.53;3.50;;;;;;;4.68;100.00;95627.69;5001921;28;20032;-76
2022/05/30 04:55:49;;;;;;;5.30;3.33;;;;;;;4.82;100.00;95632.47;5024267;28;20101;-77
2022/05/30 04:58:36;;;;;;;5.00;3.20;;;;;;;5.04;100.00;95627.94;5023192;28;20040;-78
2022/05/30 05:01:22;;;;;;;6.63;3.20;;;;;;;5.03;100.00;95624.53;5021096;28;20042;-77
2022/05/30 05:03:48;;;;;;;7.37;3.47;;;;;;;5.28;100.00;95633.50;5024108;28;20060;-78
2022/05/30 05:06:17;;;;;;;5.63;3.30;;;;;;;5.31;100.00;95630.63;5010344;28;20124;-77
2022/05/30 05:08:50;;;;;;;7.70;3.50;;;;;;;5.38;100.00;95628.28;5012641;28;20026;-77
2022/05/30 05:11:37;;;;;;;7.33;3.30;;;;;;;5.73;100.00;95630.19;5035027;28;20570;-79
2022/05/30 05:14:42;;;;;;;8.07;3.07;;;;;;;5.90;100.00;95634.66;5058967;28;20097;-78
2022/05/30 05:17:26;;;;;;;8.20;3.20;;;;;;;6.21;100.00;95634.38;5048177;28;20037;-78
2022/05/30 05:19:52;;;;;;;7.53;3.10;;;;;;;6.30;100.00;95632.66;5037975;28;20037;-78
2022/05/30 05:22:22;;;;;;;5.67;2.70;;;;;;;6.61;100.00;95625.31;5021603;28;20038;-78
2022/05/30 05:24:48;;;;;;;9.50;3.33;;;;;;;6.67;100.00;95629.09;5014834;28;20041;-77
2022/05/30 05:27:17;;;;;;;5.93;3.07;;;;;;;6.91;100.00;95625.84;5043222;28;20060;-78
2022/05/30 05:29:44;;;;;;;5.63;2.80;;;;;;;7.12;100.00;95628.16;5042421;28;20030;-77
2022/05/30 05:32:10;;;;;;;4.67;2.70;;;;;;;7.19;100.00;95635.22;5044320;28;20098;-77
2022/05/30 05:34:38;;;;;;;6.20;2.80;;;;;;;7.57;100.00;95625.31;5050599;28;20151;-76
2022/05/30 05:37:04;;;;;;;7.20;2.30;;;;;;;7.93;100.00;95628.59;5039961;28;20037;-76
2022/05/30 05:39:34;;;;;;;5.80;2.63;;;;;;;8.11;100.00;95622.44;5032785;28;20044;-77
2022/05/30 05:42:07;;;;;;;4.43;2.83;;;;;;;8.26;100.00;95623.47;5048498;28;20034;-76
2022/05/30 05:44:32;;;;;;;5.60;2.30;;;;;;;8.48;100.00;95622.06;5048252;28;20037;-77
2022/05/30 05:46:59;;;;;;;5.23;2.80;;;;;;;8.96;100.00;95626.56;5048836;28;20038;-77
2022/05/30 05:49:29;;;;;;;4.73;2.43;;;;;;;9.14;100.00;95615.88;5024100;28;20029;-77
2022/05/30 05:51:55;;;;;;;4.40;2.53;;;;;;;9.31;100.00;95627.16;5024345;28;20196;-77
2022/05/30 05:54:25;;;;;;;6.17;2.30;;;;;;;9.56;100.00;95622.72;5046930;28;20033;-77
2022/05/30 05:56:53;;;;;;;7.43;3.30;;;;;;;9.45;100.00;95615.19;5049447;28;20035;-77
2022/05/30 05:59:27;;;;;;;6.13;2.50;;;;;;;9.29;100.00;95625.69;5050582;28;20075;-77
2022/05/30 06:01:53;;;;;;;4.53;2.40;;;;;;;9.63;100.00;95622.88;5017784;28;20041;-77
2022/05/30 06:04:20;;;;;;;3.90;2.00;;;;;;;10.13;100.00;95626.94;5032038;28;20040;-77
2022/05/30 06:07:15;;;;;;;9.57;2.30;;;;;;;10.33;100.00;95628.19;5030069;28;20056;-76
2022/05/30 06:09:58;;;;;;;3.20;1.55;;;;;;;11.08;100.00;95619.63;5038218;28;20033;-77
2022/05/30 06:12:42;;;;;;;4.93;1.97;;;;;;;11.45;100.00;95620.59;5033364;28;20039;-76
2022/05/30 06:15:16;;;;;;;4.77;2.07;;;;;;;11.84;95.31;95622.22;5021905;28;20039;-77
2022/05/30 06:18:11;;;;;;;5.57;2.30;;;;;;;11.56;91.78;95620.16;5045325;28;20037;-77
2022/05/30 06:20:37;;;;;;;4.00;1.97;;;;;;;11.75;95.17;95620.63;5023936;28;20072;-77
2022/05/30 06:23:03;;;;;;;4.07;1.97;;;;;;;12.13;90.93;95623.19;5025825;28;20037;-76
2022/05/30 06:26:10;;;;;;;7.67;2.37;;;;;;;12.46;91.64;95620.94;4997345;28;20873;-76
2022/05/30 06:28:55;;;;;;;5.07;2.17;;;;;;;12.54;89.50;95628.75;4991995;28;20045;-77
2022/05/30 06:31:28;;;;;;;5.47;1.87;;;;;;;12.88;87.69;95627.28;5014897;28;20081;-77
2022/05/30 06:33:58;;;;;;;5.07;1.97;;;;;;;13.20;87.18;95621.47;5022437;28;20089;-77
2022/05/30 06:36:40;;;;;;;11.17;2.20;;;;;;;13.44;83.62;95630.81;5046087;28;20037;-77
2022/05/30 06:39:07;;;;;;;8.00;2.23;;;;;;;13.22;84.01;95631.84;5042299;28;20529;-77
2022/05/30 06:41:53;;;;;;;7.40;1.80;;;;;;;13.78;79.75;95631.06;5037961;28;20049;-77
2022/05/30 06:44:19;;;;;;;5.60;2.57;;;;;;;14.22;78.13;95635.16;5021032;28;20034;-77
2022/05/30 06:47:07;;;;;;;6.47;2.20;;;;;;;14.14;77.04;95638.78;5032599;28;20863;-79
2022/05/30 06:49:51;;;;;;;5.37;2.27;;;;;;;14.10;75.69;95642.84;5027568;28;20083;-77
2022/05/30 06:52:22;;;;;;;6.23;2.60;;;;;;;14.49;72.05;95644.06;5034151;28;20133;-77
2022/05/30 06:54:48;;;;;;;5.83;2.67;;;;;;;14.28;75.34;95640.47;5029867;28;20061;-77
2022/05/30 06:59:59;;;;;;;4.43;1.67;;;;;;;14.95;69.95;95648.66;5044431;28;20040;-78
2022/05/30 07:02:25;;;;;;;4.60;1.60;;;;;;;14.41;77.86;95646.84;5035593;28;20029;-77
2022/05/30 07:05:00;;;;;;;5.50;1.90;;;;;;;15.15;71.34;95636.28;5030696;28;20029;-77
2022/05/30 07:07:46;;;;;;;4.83;1.60;;;;;;;15.78;65.90;95631.41;5022451;28;20562;-77
2022/05/30 07:10:35;;;;;;;4.73;1.53;;;;;;;15.35;65.46;95640.78;5037501;28;20047;-77
2022/05/30 07:13:21;;;;;;;5.77;2.00;;;;;;;15.29;65.48;95643.25;5017979;28;20042;-77
2022/05/30 07:15:49;;;;;;;4.50;1.60;;;;;;;16.19;61.94;95635.59;5024667;28;20099;-77
2022/05/30 07:18:29;;;;;;;7.07;1.80;;;;;;;16.75;59.55;95642.16;5038268;28;20514;-77
2022/05/30 07:21:00;;;;;;;6.13;1.98;;;;;;;17.01;56.19;95643.84;5050404;28;20037;-77
2022/05/30 07:23:27;;;;;;;5.72;2.00;;;;;;;16.91;55.02;95646.16;5045067;28;20083;-77
2022/05/30 07:26:16;;;;;;;10.20;4.55;;;;;;;16.91;54.20;95644.31;5039725;28;20119;-77
2022/05/30 07:29:01;;;;;;;11.52;5.13;;;;;;;18.25;50.63;95634.22;5037668;28;20043;-77
2022/05/30 07:31:45;;;;;;;5.60;1.95;;;;;;;18.24;50.41;95642.41;5043825;28;20090;-77
2022/05/30 07:34:31;;;;;;;6.05;1.70;;;;;;;18.32;50.75;95640.28;5022618;28;20094;-77
2022/05/30 07:37:29;;;;;;;5.00;1.55;;;;;;;17.75;50.63;95636.94;5036129;28;20402;-79
2022/05/30 07:40:25;;;;;;;4.63;1.45;;;;;;;18.65;48.48;95641.75;5024506;28;20065;-77
2022/05/30 07:42:56;;;;;;;5.57;1.40;;;;;;;18.34;48.34;95645.38;5034371;28;20704;-77
2022/05/30 07:45:41;;;;;;;7.68;1.40;;;;;;;18.22;47.01;95642.66;5050719;28;20080;-77
2022/05/30 07:48:16;;;;;;;3.38;1.50;;;;;;;17.57;48.01;95644.88;5012381;28;20070;-78
2022/05/30 07:50:47;;;;;;;5.20;1.80;;;;;;;17.72;50.16;95645.34;5043437;28;20037;-77
2022/05/30 07:53:33;;;;;;;5.25;1.55;;;;;;;18.61;48.92;95648.53;5034639;28;20044;-78
2022/05/30 07:56:14;;;;;;;5.22;1.55;;;;;;;18.50;45.12;95650.09;5049188;28;20017;-78
2022/05/30 07:58:40;;;;;;;3.75;1.42;;;;;;;18.13;47.53;95639.47;5043759;28;20053;-78
2022/05/30 08:01:10;;;;;;;3.95;1.48;;;;;;;19.35;42.86;95641.22;5023993;28;20490;-77
2022/05/30 08:03:38;;;;;;;5.82;1.95;;;;;;;19.04;44.01;95648.41;5030368;28;20083;-78
2022/05/30 08:06:29;;;;;;;3.72;1.20;;;;;;;19.51;43.54;95645.06;5037051;28;20092;-77
2022/05/30 08:09:18;;;;;;;6.70;1.90;;;;;;;17.84;48.53;95648.97;5042985;28;20044;-78
2022/05/30 08:12:03;;;;;;;4.30;1.65;;;;;;;18.08;48.28;95643.84;5030856;28;20121;-78
2022/05/30 08:14:47;;;;;;;4.60;2.05;;;;;;;19.17;44.58;95638.59;5040411;28;20044;-77
2022/05/30 08:17:13;;;;;;;4.32;1.33;;;;;;;18.39;46.17;95637.53;5037923;28;20032;-78
2022/05/30 08:19:40;;;;;;;3.50;1.38;;;;;;;19.03;43.15;95643.31;5030705;28;20503;-78
2022/05/30 08:22:09;;;;;;;5.78;1.92;;;;;;;19.04;44.80;95645.75;5016228;28;20101;-78
2022/05/30 08:24:41;;;;;;;5.15;1.58;;;;;;;16.94;48.92;95656.34;5031482;28;20560;-77
2022/05/30 08:27:12;;;;;;;3.05;1.23;;;;;;;18.83;44.88;95643.59;5033861;28;20045;-77
2022/05/30 08:29:51;;;;;;;3.30;1.35;;;;;;;20.14;39.94;95640.94;5025356;28;20032;-78
2022/05/30 08:32:17;;;;;;;7.45;1.60;;;;;;;19.85;37.76;95640.00;5017202;28;20526;-78
2022/05/30 08:35:03;;;;;;;3.83;1.23;;;;;;;20.07;38.00;95640.25;5030101;28;20045;-78
2022/05/30 08:37:32;;;;;;;3.92;1.00;;;;;;;20.38;38.89;95629.16;5042315;28;20025;-77
2022/05/30 08:42:53;;;;;;;5.40;1.40;;;;;;;18.38;39.93;95652.72;5048658;28;20029;-79
2022/05/30 08:45:36;;;;;;;6.25;1.40;;;;;;;19.15;39.59;95644.19;5041422;28;20083;-78
2022/05/30 08:48:40;;;;;;;4.03;1.10;;;;;;;20.63;35.31;95641.47;5033616;28;20055;-78
2022/05/30 08:51:21;;;;;;;3.40;1.02;;;;;;;17.74;39.95;95645.97;5013514;28;20025;-78
2022/05/30 08:53:51;;;;;;;5.18;1.52;;;;;;;18.31;41.05;95646.66;5043875;28;20501;-77
2022/05/30 08:56:28;;;;;;;3.75;1.00;;;;;;;19.83;39.03;95642.94;5044856;28;20032;-78
2022/05/30 08:59:21;;;;;;;5.47;1.20;;;;;;;18.31;40.26;95641.31;5018678;28;20057;-77
2022/05/30 09:01:53;;;;;;;3.47;1.20;;;;;;;20.32;36.43;95635.47;5042667;28;20056;-77
2022/05/30 09:05:07;;;;;;;4.65;1.10;;;;;;;20.13;36.42;95637.47;5030776;28;20037;-78
2022/05/30 09:07:57;;;;;;;4.25;1.63;;;;;;;19.43;34.92;95643.53;5030034;28;20037;-78
2022/05/30 09:10:33;;;;;;;3.70;0.90;;;;;;;19.97;34.15;95641.63;5036160;28;20022;-78
2022/05/30 09:13:10;;;;;;;3.67;1.20;;;;;;;21.37;33.62;95645.00;5026145;28;20065;-78
2022/05/30 09:15:54;;;;;;;2.13;0.68;;;;;;;20.39;34.03;95646.84;5022928;28;20021;-78
2022/05/30 09:18:27;;;;;;;5.35;1.45;;;;;;;20.81;32.50;95643.16;5041921;28;20108;-78
2022/05/30 09:20:53;;;;;;;4.05;1.60;;;;;;;20.52;33.20;95644.97;5016105;28;20089;-78
2022/05/30 09:23:24;;;;;;;4.07;1.17;;;;;;;22.26;32.92;95633.53;5024577;28;20067;-78
2022/05/30 09:25:56;;;;;;;2.97;0.80;;;;;;;21.65;31.87;95630.75;5040180;28;20061;-78
2022/05/30 09:28:42;;;;;;;2.35;0.90;;;;;;;19.81;33.06;95645.00;5039093;28;20124;-78
2022/05/30 09:31:56;;;;;;;3.63;0.80;;;;;;;19.13;32.83;95643.59;5041573;28;20418;-78
2022/05/30 09:34:39;;;;;;;2.05;0.95;;;;;;;21.98;28.51;95633.66;5031933;28;20119;-78
2022/05/30 09:37:32;;;;;;;3.53;1.17;;;;;;;22.86;29.14;95631.06;5038712;28;20061;-77
2022/05/30 09:40:47;;;;;;;3.33;1.25;;;;;;;23.18;28.27;95626.59;5025269;28;20044;-78
2022/05/30 09:43:39;;;;;;;1.73;0.93;;;;;;;21.81;31.36;95629.13;5035423;28;20037;-78
2022/05/30 09:46:22;;;;;;;4.40;0.82;;;;;;;22.35;30.28;95629.38;5018328;28;20034;-78
2022/05/30 09:49:21;;;;;;;3.15;1.00;;;;;;;22.45;29.26;95625.22;5031734;28;20076;-78
2022/05/30 09:51:56;;;;;;;2.03;0.93;;;;;;;23.97;29.00;95630.50;5051174;28;20435;-78
2022/05/30 09:54:25;;;;;;;3.55;1.08;;;;;;;22.98;30.53;95629.09;5025729;28;20049;-78
2022/05/30 09:57:14;;;;;;;2.08;1.05;;;;;;;21.62;29.29;95639.25;5033550;28;20038;-78
2022/05/30 10:00:33;;;;;;;2.90;0.95;;;;;;;19.37;33.60;95644.44;5037714;28;20037;-78
2022/05/30 10:03:07;;;;;;;7.07;1.52;;;;;;;20.18;34.84;95644.75;5044350;28;20044;-78
2022/05/30 10:05:36;;;;;;;2.97;1.17;;;;;;;21.17;31.45;95639.28;5030154;28;20087;-77
2022/05/30 10:08:20;;;;;;;3.83;1.10;;;;;;;21.65;31.47;95635.28;5025479;28;20510;-77
2022/05/30 10:10:56;;;;;;;2.35;1.13;;;;;;;22.12;30.11;95637.59;5023371;28;20079;-78
2022/05/30 10:13:40;;;;;;;2.78;0.80;;;;;;;21.98;32.69;95641.69;5035675;28;20080;-78
2022/05/30 10:16:34;;;;;;;3.33;0.90;;;;;;;23.21;28.95;95639.50;5024479;28;20056;-78
2022/05/30 10:19:06;;;;;;;2.83;0.95;;;;;;;23.08;29.67;95639.91;5020708;28;20049;-78
2022/05/30 10:28:44;;;;;;;1.77;0.82;;;;;;;22.82;29.81;95636.09;5017343;28;20041;-79
2022/05/30 10:31:41;;;;;;;1.27;0.75;;;;;;;22.68;27.83;95642.94;5019469;28;20554;-78
2022/05/30 10:34:18;;;;;;;3.70;1.20;;;;;;;23.41;28.60;95646.16;5029193;28;20036;-78
2022/05/30 10:37:05;;;;;;;2.92;0.90;;;;;;;22.70;28.01;95638.94;5019894;28;20426;-78
2022/05/30 10:39:54;;;;;;;3.47;1.00;;;;;;;23.08;27.97;95639.13;5020531;28;20665;-80
2022/05/30 10:42:31;;;;;;;2.40;0.95;;;;;;;23.09;28.55;95646.09;5010629;28;21342;-78
2022/05/30 10:45:19;;;;;;;2.85;1.08;;;;;;;23.93;27.48;95640.94;5017007;28;20034;-78
2022/05/30 10:47:49;;;;;;;3.03;0.95;;;;;;;25.23;26.01;95630.56;5015869;28;20038;-78
2022/05/30 10:50:17;;;;;;;4.97;1.17;;;;;;;21.99;28.40;95640.63;5017997;28;20065;-79
2022/05/30 10:53:00;;;;;;;2.08;0.70;;;;;;;21.82;30.16;95638.75;4999108;28;20057;-77
2022/05/30 10:55:51;;;;;;;2.25;0.95;;;;;;;21.65;30.25;95636.09;5016221;28;20351;-80
2022/05/30 10:58:34;;;;;;;3.17;0.85;;;;;;;20.08;31.04;95647.22;4998351;28;20037;-79
2022/05/30 11:01:09;;;;;;;3.08;1.15;;;;;;;20.36;32.06;95652.66;5012339;28;20106;-79
2022/05/30 11:03:43;;;;;;;2.17;0.90;;;;;;;19.64;31.33;95652.06;5013675;28;20551;-77
2022/05/30 11:06:32;;;;;;;3.80;1.20;;;;;;;20.27;34.34;95651.38;5005274;28;20490;-78
2022/05/30 11:09:22;;;;;;;2.40;0.90;;;;;;;19.82;33.00;95665.31;4993709;28;20048;-77
2022/05/30 11:11:50;;;;;;;2.75;0.80;;;;;;;19.20;34.23;95664.81;5015195;28;20042;-78
2022/05/30 11:14:50;;;;;;;2.10;0.70;;;;;;;19.69;34.20;95661.00;4998394;28;20045;-78
2022/05/30 11:17:51;;;;;;;2.05;1.05;;;;;;;19.34;33.07;95665.44;5015099;28;20363;-78
2022/05/30 11:21:17;;;;;;;2.60;0.80;;;;;;;19.50;33.90;95662.91;5006787;28;20042;-78
2022/05/30 11:23:43;;;;;;;3.13;1.50;;;;;;;20.06;32.85;95663.47;4976001;28;20034;-77
2022/05/30 11:26:22;;;;;;;3.40;1.02;;;;;;;21.09;31.18;95661.03;4991414;28;22612;-77
2022/05/30 11:28:51;;;;;;;4.05;0.80;;;;;;;22.96;28.19;95653.44;4998780;28;20041;-77
2022/05/30 11:32:05;;;;;;;2.28;0.68;;;;;;;22.64;28.05;95657.88;5009688;28;20616;-77
2022/05/30 11:34:53;;;;;;;0.90;0.60;;;;;;;19.95;30.98;95657.09;4958374;28;20061;-77
2022/05/30 11:37:24;;;;;;;2.65;0.85;;;;;;;20.12;30.57;95661.69;4988039;28;20042;-78
2022/05/30 11:40:12;;;;;;;3.13;1.10;;;;;;;20.23;31.60;95664.38;4995667;28;20473;-77
2022/05/30 11:42:52;;;;;;;2.13;1.00;;;;;;;19.95;31.89;95678.44;4994250;28;20037;-77
2022/05/30 11:45:57;;;;;;;3.00;0.77;;;;;;;20.67;30.73;95662.13;4997611;28;20057;-77
2022/05/30 11:48:39;;;;;;;3.47;0.75;;;;;;;19.77;33.14;95682.00;5022026;28;20048;-77
2022/05/30 11:51:20;;;;;;;3.30;1.20;;;;;;;19.65;32.38;95675.03;5011595;28;20112;-77
2022/05/30 11:54:07;;;;;;;4.20;1.08;;;;;;;20.09;31.09;95667.53;4993618;28;20483;-76
2022/05/30 11:56:52;;;;;;;2.70;0.85;;;;;;;20.22;30.90;95667.25;5011172;28;20041;-78
2022/05/30 11:59:51;;;;;;;2.47;1.23;;;;;;;20.20;32.95;95669.38;5010163;28;20057;-77
2022/05/30 12:02:28;;;;;;;2.55;1.10;;;;;;;19.96;34.83;95663.22;5013518;28;20040;-79
2022/05/30 12:05:06;;;;;;;2.53;0.98;;;;;;;19.99;31.77;95668.91;5010333;28;20041;-76
2022/05/30 12:07:53;;;;;;;1.95;0.90;;;;;;;21.78;30.38;95664.41;4983963;28;20046;-77
2022/05/30 12:10:50;;;;;;;2.35;0.80;;;;;;;22.54;29.99;95661.25;5003388;28;20700;-77
2022/05/30 12:13:28;;;;;;;3.28;1.38;;;;;;;22.78;29.59;95665.28;4982863;28;20053;-76
2022/05/30 12:16:11;;;;;;;1.85;0.98;;;;;;;23.05;27.45;95667.25;5002339;28;20068;-77
2022/05/30 12:24:11;;;;;;;3.22;1.00;;;;;;;22.53;28.37;95659.59;4987645;28;20337;-76
2022/05/30 12:26:48;;;;;;;4.97;1.50;;;;;;;22.73;28.30;95662.53;4975194;28;20042;-76
2022/05/30 12:29:37;;;;;;;2.60;1.05;;;;;;;21.23;28.98;95661.56;4983090;28;20116;-77
2022/05/30 12:32:21;;;;;;;3.00;1.05;;;;;;;22.39;28.76;95667.19;4981095;28;20037;-76
2022/05/30 12:35:26;;;;;;;5.07;1.05;;;;;;;23.72;27.12;95671.41;4979081;28;20548;-78
2022/05/30 12:38:01;;;;;;;4.63;0.98;;;;;;;23.29;27.24;95662.38;5010362;28;20045;-75
2022/05/30 12:40:26;;;;;;;4.47;1.20;;;;;;;23.71;25.61;95659.84;4993606;28;20037;-76
2022/05/30 12:43:23;;;;;;;3.00;0.80;;;;;;;22.90;27.49;95659.78;4977916;28;20048;-76
2022/05/30 12:45:55;;;;;;;3.88;1.08;;;;;;;23.85;26.49;95654.06;4975427;28;20041;-77